createdAt,value
2022-12-09T00:01:30.768Z,27.05
2022-12-09T00:04:02.904Z,27.37
2022-12-09T00:06:38.837Z,29.17
2022-12-09T00:09:17.603Z,28.80
2022-12-09T00:11:53.355Z,26.83
2022-12-09T00:14:25.719Z,27.67
2022-12-09T00:16:55.040Z,26.53
2022-12-09T00:19:35.423Z,26.47
2022-12-09T00:22:07.357Z,25.03
2022-12-09T00:24:39.851Z,25.17
2022-12-09T00:27:14.925Z,24.03
2022-12-09T00:29:46.505Z,24.97
2022-12-09T00:32:24.609Z,24.33
2022-12-09T00:34:55.022Z,24.87
2022-12-09T00:37:24.757Z,26.40
2022-12-09T00:39:56.752Z,24.73
2022-12-09T00:42:27.235Z,24.53
2022-12-09T00:44:56.591Z,26.40
2022-12-09T00:47:25.981Z,25.95
2022-12-09T00:50:00.361Z,24.20
2022-12-09T00:52:33.602Z,25.63
2022-12-09T00:55:03.046Z,27.70
2022-12-09T00:57:34.794Z,28.13
2022-12-09T01:00:07.927Z,27.60
2022-12-09T01:02:38.043Z,29.53
2022-12-09T01:05:10.536Z,29.80
2022-12-09T01:07:42.839Z,29.00
2022-12-09T01:10:14.072Z,28.83
2022-12-09T01:12:43.148Z,28.73
2022-12-09T01:15:21.117Z,29.80
2022-12-09T01:17:53.723Z,27.73
2022-12-09T01:20:33.705Z,29.30
2022-12-09T01:23:03.231Z,28.40
2022-12-09T01:25:34.826Z,29.80
2022-12-09T01:28:04.526Z,27.43
2022-12-09T01:30:39.662Z,28.37
2022-12-09T01:33:13.316Z,26.40
2022-12-09T01:35:44.891Z,27.37
2022-12-09T01:38:14.820Z,26.13
2022-12-09T01:40:50.956Z,27.17
2022-12-09T01:43:21.475Z,25.30
2022-12-09T01:45:56.870Z,25.60
2022-12-09T01:48:32.234Z,28.30
2022-12-09T01:51:16.374Z,27.30
2022-12-09T01:53:52.319Z,26.83
2022-12-09T01:56:29.902Z,26.60
2022-12-09T01:59:05.217Z,26.75
2022-12-09T02:01:36.079Z,26.70
2022-12-09T02:04:06.068Z,27.37
2022-12-09T02:06:37.360Z,28.20
2022-12-09T02:09:11.045Z,26.80
2022-12-09T02:11:57.360Z,26.43
2022-12-09T02:14:39.853Z,27.33
2022-12-09T02:17:31.385Z,28.17
2022-12-09T02:20:13.881Z,26.57
2022-12-09T02:22:48.174Z,25.32
2022-12-09T02:25:30.403Z,24.63
2022-12-09T02:28:24.789Z,26.50
2022-12-09T02:31:08.680Z,25.67
2022-12-09T02:33:55.361Z,27.03
2022-12-09T02:36:30.439Z,28.13
2022-12-09T02:39:01.502Z,27.50
2022-12-09T02:41:35.422Z,29.13
2022-12-09T02:44:11.935Z,29.07
2022-12-09T02:46:47.337Z,28.03
2022-12-09T02:49:22.316Z,26.53
2022-12-09T02:51:52.279Z,28.17
2022-12-09T02:54:25.132Z,28.60
2022-12-09T02:56:57.953Z,28.07
2022-12-09T02:59:28.878Z,27.70
2022-12-09T03:02:08.965Z,28.17
2022-12-09T03:04:45.240Z,28.17
2022-12-09T03:07:24.761Z,26.70
2022-12-09T03:10:05.796Z,28.57
2022-12-09T03:12:38.576Z,27.43
2022-12-09T03:15:12.500Z,30.57
2022-12-09T03:17:46.994Z,29.07
2022-12-09T03:20:22.655Z,29.47
2022-12-09T03:22:55.398Z,26.10
2022-12-09T03:25:29.857Z,25.73
2022-12-09T03:28:04.473Z,27.60
2022-12-09T03:30:41.219Z,26.53
2022-12-09T03:33:15.644Z,26.33
2022-12-09T03:35:50.209Z,27.93
2022-12-09T03:41:00.062Z,26.97
2022-12-09T03:43:47.719Z,28.13
2022-12-09T03:46:16.978Z,27.73
2022-12-09T03:48:46.541Z,26.97
2022-12-09T03:51:25.146Z,26.37
2022-12-09T03:54:03.358Z,28.57
2022-12-09T03:56:39.184Z,28.00
2022-12-09T03:59:13.200Z,26.73
2022-12-09T04:01:49.411Z,28.95
2022-12-09T04:04:19.659Z,28.53
2022-12-09T04:06:50.680Z,27.70
2022-12-09T04:09:23.255Z,26.67
2022-12-09T04:11:54.002Z,25.37
2022-12-09T04:14:23.211Z,25.33
2022-12-09T04:16:52.357Z,27.97
2022-12-09T04:19:24.444Z,26.63
2022-12-09T04:21:53.777Z,26.40
2022-12-09T04:24:29.892Z,25.63
2022-12-09T04:26:58.879Z,26.50
2022-12-09T04:29:32.005Z,25.63
2022-12-09T04:32:01.265Z,24.87
2022-12-09T04:34:34.127Z,22.97
2022-12-09T04:37:05.165Z,23.97
2022-12-09T04:39:34.445Z,24.45
2022-12-09T04:42:06.277Z,24.30
2022-12-09T04:44:35.747Z,23.10
2022-12-09T04:47:17.035Z,25.07
2022-12-09T04:49:55.748Z,25.80
2022-12-09T04:52:26.509Z,25.13
2022-12-09T04:54:55.247Z,23.93
2022-12-09T04:57:27.261Z,24.60
2022-12-09T04:59:56.299Z,27.03
2022-12-09T05:02:25.949Z,27.23
2022-12-09T05:04:55.286Z,28.73
2022-12-09T05:07:24.767Z,28.70
2022-12-09T05:09:54.513Z,28.20
2022-12-09T05:12:23.785Z,27.63
2022-12-09T05:14:52.875Z,28.43
2022-12-09T05:17:24.909Z,26.43
2022-12-09T05:19:54.315Z,27.57
2022-12-09T05:22:23.345Z,26.30
2022-12-09T05:24:54.826Z,26.37
2022-12-09T05:27:24.002Z,26.10
2022-12-09T05:29:54.855Z,27.60
2022-12-09T05:32:23.961Z,25.87
2022-12-09T05:34:53.360Z,27.23
2022-12-09T05:37:24.633Z,26.77
2022-12-09T05:39:58.196Z,28.07
2022-12-09T05:42:27.566Z,29.23
2022-12-09T05:44:57.018Z,26.33
2022-12-09T05:47:26.221Z,26.50
2022-12-09T05:50:02.979Z,27.30
2022-12-09T05:52:37.137Z,28.67
2022-12-09T05:55:08.157Z,42.10
2022-12-09T05:57:38.014Z,38.87
2022-12-09T06:00:14.994Z,34.60
2022-12-09T06:02:47.815Z,32.00
2022-12-09T06:05:18.288Z,30.83
2022-12-09T06:07:53.373Z,36.30
2022-12-09T06:10:23.196Z,38.23
2022-12-09T06:12:57.202Z,41.53
2022-12-09T06:15:32.949Z,34.58
2022-12-09T06:18:05.763Z,32.53
2022-12-09T06:20:38.700Z,30.53
2022-12-09T06:23:09.144Z,28.90
2022-12-09T06:25:43.500Z,28.73
2022-12-09T06:28:21.581Z,27.83
2022-12-09T06:30:50.663Z,28.33
2022-12-09T06:33:52.432Z,27.27
2022-12-09T06:36:12.637Z,28.60
2022-12-09T06:38:51.498Z,27.57
2022-12-09T06:41:28.858Z,28.13
2022-12-09T06:44:00.054Z,27.57
2022-12-09T06:46:33.759Z,29.35
2022-12-09T06:49:04.756Z,28.23
2022-12-09T06:51:33.983Z,28.83
2022-12-09T06:54:03.144Z,27.30
2022-12-09T06:56:35.287Z,27.20
2022-12-09T06:59:07.773Z,28.03
2022-12-09T07:01:46.073Z,27.07
2022-12-09T07:04:16.894Z,26.97
2022-12-09T07:06:46.978Z,28.60
2022-12-09T07:09:23.150Z,31.50
2022-12-09T07:11:52.832Z,28.30
2022-12-09T07:14:22.150Z,28.63
2022-12-09T07:16:52.105Z,29.80
2022-12-09T07:19:24.659Z,31.03
2022-12-09T07:21:53.937Z,32.07
2022-12-09T07:24:23.188Z,32.27
2022-12-09T07:26:52.657Z,35.17
2022-12-09T07:29:23.047Z,37.57
2022-12-09T07:31:52.795Z,38.50
2022-12-09T07:34:22.013Z,40.77
2022-12-09T07:36:52.058Z,40.43
2022-12-09T07:39:21.816Z,40.00
2022-12-09T07:41:56.207Z,45.10
2022-12-09T07:44:30.335Z,44.87
2022-12-09T07:47:00.304Z,42.10
2022-12-09T07:49:30.710Z,46.23
2022-12-09T07:52:00.065Z,47.17
2022-12-09T07:54:38.995Z,47.07
2022-12-09T07:57:08.067Z,43.13
2022-12-09T07:59:37.953Z,43.20
2022-12-09T08:02:08.943Z,42.57
2022-12-09T08:04:41.387Z,41.70
2022-12-09T08:07:13.758Z,42.90
2022-12-09T08:09:43.084Z,40.07
2022-12-09T08:12:17.224Z,45.07
2022-12-09T08:14:46.366Z,43.33
2022-12-09T08:17:21.451Z,42.20
2022-12-09T08:19:52.230Z,40.27
2022-12-09T08:22:23.109Z,40.40
2022-12-09T08:24:52.316Z,38.50
2022-12-09T08:27:23.399Z,40.13
2022-12-09T08:29:53.078Z,37.20
2022-12-09T08:32:22.624Z,39.07
2022-12-09T08:34:52.160Z,40.33
2022-12-09T08:37:26.589Z,40.60
2022-12-09T08:39:55.940Z,36.75
2022-12-09T08:42:30.560Z,37.37
2022-12-09T08:45:02.441Z,39.03
2022-12-09T08:47:32.114Z,36.10
2022-12-09T08:50:05.412Z,37.07
2022-12-09T08:52:40.340Z,39.78
2022-12-09T08:55:10.769Z,42.20
2022-12-09T08:57:41.004Z,39.70
2022-12-09T09:00:12.486Z,37.23
2022-12-09T09:02:43.231Z,37.77
2022-12-09T09:05:18.989Z,39.50
2022-12-09T09:07:53.319Z,39.77
2022-12-09T09:10:22.534Z,40.07
2022-12-09T09:12:51.487Z,43.00
2022-12-09T09:15:20.763Z,44.90
2022-12-09T09:17:52.414Z,42.00
2022-12-09T09:20:25.729Z,40.50
2022-12-09T09:23:02.813Z,38.83
2022-12-09T09:25:40.231Z,37.70
2022-12-09T09:28:12.976Z,38.67
2022-12-09T09:30:43.211Z,40.13
2022-12-09T09:33:12.445Z,39.57
2022-12-09T09:35:42.395Z,39.30
2022-12-09T09:38:21.899Z,36.87
2022-12-09T09:40:51.300Z,35.73
2022-12-09T09:43:24.463Z,40.10
2022-12-09T09:45:56.878Z,39.43
2022-12-09T09:48:31.871Z,39.50
2022-12-09T09:51:05.919Z,41.67
2022-12-09T09:53:43.838Z,41.40
2022-12-09T09:56:28.502Z,43.83
2022-12-09T09:59:14.313Z,44.17
2022-12-09T10:01:59.272Z,38.17
2022-12-09T10:04:39.375Z,38.13
2022-12-09T10:07:20.097Z,38.97
2022-12-09T10:10:03.074Z,38.70
2022-12-09T10:12:41.746Z,40.07
2022-12-09T10:15:16.948Z,39.87
2022-12-09T10:20:22.450Z,36.43
2022-12-09T10:22:55.888Z,34.30
2022-12-09T10:25:27.483Z,36.42
2022-12-09T10:28:16.125Z,33.60
2022-12-09T10:30:45.926Z,35.70
2022-12-09T10:33:26.836Z,34.63
2022-12-09T10:35:56.932Z,35.50
2022-12-09T10:38:41.934Z,34.40
2022-12-09T10:44:23.158Z,32.97
2022-12-09T10:46:59.708Z,35.80
2022-12-09T10:49:33.314Z,35.37
2022-12-09T10:52:04.434Z,32.97
2022-12-09T10:54:38.650Z,35.37
2022-12-09T10:57:23.468Z,35.80
2022-12-09T11:00:07.085Z,34.33
2022-12-09T11:05:25.470Z,34.53
2022-12-09T11:07:58.341Z,35.93
2022-12-09T11:10:30.717Z,34.23
2022-12-09T11:13:04.611Z,34.97
2022-12-09T11:15:59.292Z,36.40
2022-12-09T11:18:33.911Z,33.67
2022-12-09T11:21:06.945Z,35.53
2022-12-09T11:23:41.935Z,34.70
2022-12-09T11:26:24.763Z,34.73
2022-12-09T11:29:03.835Z,34.73
2022-12-09T11:31:53.905Z,35.33
2022-12-09T11:34:29.984Z,35.63
2022-12-09T11:37:02.206Z,36.17
2022-12-09T11:39:37.767Z,34.67
2022-12-09T11:42:24.386Z,37.03
2022-12-09T11:44:56.853Z,34.67
2022-12-09T11:47:50.351Z,35.27
2022-12-09T11:50:23.778Z,35.13
2022-12-09T11:53:17.320Z,33.93
2022-12-09T11:55:49.538Z,35.60
2022-12-09T11:58:26.010Z,36.70
2022-12-09T12:01:02.915Z,35.20
2022-12-09T12:03:40.139Z,36.53
2022-12-09T12:06:17.440Z,35.67
2022-12-09T12:08:51.495Z,37.63
2022-12-09T12:11:26.885Z,36.07
2022-12-09T12:14:06.807Z,37.85
2022-12-09T12:16:48.872Z,35.33
2022-12-09T12:19:28.345Z,35.43
2022-12-09T12:22:25.154Z,36.00
2022-12-09T12:25:25.992Z,34.80
2022-12-09T12:28:16.961Z,35.07
2022-12-09T12:30:55.636Z,35.63
2022-12-09T12:34:16.181Z,34.00
2022-12-09T12:36:47.492Z,34.77
2022-12-09T12:39:31.022Z,35.73
2022-12-09T12:42:13.800Z,35.13
2022-12-09T12:45:14.025Z,34.93
2022-12-09T12:47:48.952Z,34.23
2022-12-09T12:50:43.611Z,34.13
2022-12-09T12:53:29.670Z,34.00
2022-12-09T12:56:04.739Z,32.95
2022-12-09T12:58:51.998Z,31.87
2022-12-09T13:04:22.274Z,36.30
2022-12-09T13:06:57.657Z,36.73
2022-12-09T13:09:35.020Z,36.77
2022-12-09T13:12:11.588Z,37.40
2022-12-09T13:14:52.246Z,37.63
2022-12-09T13:17:31.589Z,35.77
2022-12-09T13:20:03.839Z,36.50
2022-12-09T13:22:47.613Z,36.37
2022-12-09T13:25:29.694Z,34.70
2022-12-09T13:28:16.234Z,34.37
2022-12-09T13:30:54.409Z,34.17
2022-12-09T13:33:44.634Z,35.37
2022-12-09T13:36:21.484Z,37.37
2022-12-09T13:38:52.016Z,35.10
2022-12-09T13:42:02.246Z,34.90
2022-12-09T13:44:34.586Z,35.00
2022-12-09T13:47:24.424Z,36.17
2022-12-09T13:49:57.618Z,34.07
2022-12-09T13:52:46.500Z,34.37
2022-12-09T13:55:33.716Z,32.53
2022-12-09T13:58:45.918Z,33.10
2022-12-09T14:01:25.652Z,35.73
2022-12-09T14:04:02.347Z,34.53
2022-12-09T14:06:35.617Z,34.73
2022-12-09T14:09:24.605Z,35.17
2022-12-09T14:11:54.983Z,32.83
2022-12-09T14:14:57.795Z,32.47
2022-12-09T14:18:04.618Z,34.23
2022-12-09T14:20:39.820Z,51.80
2022-12-09T14:23:20.507Z,49.47
2022-12-09T14:26:33.617Z,45.87
2022-12-09T14:29:03.491Z,42.77
2022-12-09T14:31:57.961Z,42.33
2022-12-09T14:34:34.321Z,45.90
2022-12-09T14:37:30.674Z,45.60
2022-12-09T14:40:18.769Z,47.53
2022-12-09T14:42:58.096Z,50.40
2022-12-09T14:45:36.526Z,44.73
2022-12-09T14:48:11.804Z,44.23
2022-12-09T14:50:47.634Z,43.03
2022-12-09T14:53:24.816Z,40.33
2022-12-09T14:55:54.806Z,43.50
2022-12-09T14:58:29.987Z,42.00
2022-12-09T15:01:06.114Z,41.80
2022-12-09T15:03:54.911Z,40.23
2022-12-09T15:06:27.158Z,39.13
2022-12-09T15:08:59.828Z,36.73
2022-12-09T15:11:37.318Z,37.33
2022-12-09T15:14:27.736Z,39.67
2022-12-09T15:16:59.060Z,41.27
2022-12-09T15:19:59.110Z,41.37
2022-12-09T15:22:24.117Z,41.77
2022-12-09T15:24:56.163Z,41.63
2022-12-09T15:27:28.719Z,43.17
2022-12-09T15:29:59.356Z,48.33
2022-12-09T15:32:30.396Z,48.73
2022-12-09T15:35:25.887Z,44.57
2022-12-09T15:40:31.658Z,47.93
2022-12-09T15:43:12.619Z,46.63
2022-12-09T15:45:44.723Z,46.10
2022-12-09T15:48:35.858Z,52.27
2022-12-09T15:51:19.170Z,51.27
2022-12-09T15:54:00.213Z,53.50
2022-12-09T15:56:35.843Z,50.63
2022-12-09T15:59:11.992Z,57.97
2022-12-09T16:01:49.945Z,60.53
2022-12-09T16:04:22.756Z,63.63
2022-12-09T16:06:52.254Z,63.27
2022-12-09T16:09:25.040Z,57.83
2022-12-09T16:11:55.020Z,59.60
2022-12-09T16:14:26.710Z,51.87
2022-12-09T16:17:01.218Z,53.53
2022-12-09T16:19:38.378Z,59.73
2022-12-09T16:22:28.327Z,53.30
2022-12-09T16:25:15.283Z,56.37
2022-12-09T16:27:50.922Z,57.37
2022-12-09T16:30:26.089Z,53.27
2022-12-09T16:33:02.460Z,54.63
2022-12-09T16:35:42.779Z,50.05
2022-12-09T16:38:21.418Z,49.20
2022-12-09T16:41:21.667Z,53.23
2022-12-09T16:44:00.147Z,53.00
2022-12-09T16:47:02.769Z,54.13
2022-12-09T16:49:34.797Z,53.87
2022-12-09T16:52:13.201Z,56.03
2022-12-09T16:54:46.658Z,53.00
2022-12-09T16:57:21.401Z,59.27
2022-12-09T17:00:01.728Z,55.65
2022-12-09T17:02:41.576Z,55.97
2022-12-09T17:05:15.316Z,57.93
2022-12-09T17:07:48.770Z,59.95
2022-12-09T17:10:20.300Z,60.60
2022-12-09T17:12:56.529Z,59.17
2022-12-09T17:15:26.626Z,59.93
2022-12-09T17:17:56.941Z,56.50
2022-12-09T17:20:26.262Z,57.80
2022-12-09T17:22:56.228Z,54.57
2022-12-09T17:25:29.171Z,59.13
2022-12-09T17:28:03.647Z,55.27
2022-12-09T17:30:38.500Z,55.67
2022-12-09T17:33:09.942Z,58.37
2022-12-09T17:35:40.088Z,55.47
2022-12-09T17:38:10.013Z,54.23
2022-12-09T17:40:39.055Z,56.67
2022-12-09T17:43:15.822Z,58.73
2022-12-09T17:45:48.417Z,55.40
2022-12-09T17:48:21.993Z,57.77
2022-12-09T17:50:52.097Z,56.47
2022-12-09T17:53:21.116Z,55.83
2022-12-09T17:55:50.361Z,56.07
2022-12-09T17:58:24.051Z,57.57
2022-12-09T18:00:56.406Z,70.05
2022-12-09T18:03:53.734Z,66.33
2022-12-09T18:06:17.972Z,57.73
2022-12-09T18:08:50.434Z,58.17
2022-12-09T18:11:24.881Z,60.33
2022-12-09T18:13:57.690Z,53.83
2022-12-09T18:16:26.912Z,57.07
2022-12-09T18:19:03.333Z,56.90
2022-12-09T18:21:36.989Z,55.33
2022-12-09T18:24:07.318Z,56.15
2022-12-09T18:26:42.226Z,52.13
2022-12-09T18:29:14.787Z,52.13
2022-12-09T18:31:56.564Z,52.77
2022-12-09T18:34:28.496Z,53.97
2022-12-09T18:36:58.261Z,54.10
2022-12-09T18:39:36.834Z,55.17
2022-12-09T18:42:06.850Z,56.57
2022-12-09T18:44:42.084Z,48.83
2022-12-09T18:47:11.291Z,53.10
2022-12-09T18:49:40.601Z,54.60
2022-12-09T18:52:09.499Z,52.47
2022-12-09T18:54:39.772Z,55.40
2022-12-09T18:57:08.750Z,53.67
2022-12-09T18:59:38.211Z,53.93
2022-12-09T19:02:09.434Z,54.03
2022-12-09T19:04:39.366Z,55.73
2022-12-09T19:07:13.762Z,58.60
2022-12-09T19:09:42.783Z,57.80
2022-12-09T19:12:45.337Z,56.30
2022-12-09T19:15:03.243Z,57.53
2022-12-09T19:17:33.203Z,56.60
2022-12-09T19:20:02.820Z,51.53
2022-12-09T19:22:32.441Z,52.10
2022-12-09T19:25:02.141Z,48.50
2022-12-09T19:27:33.793Z,46.73
2022-12-09T19:30:02.936Z,47.17
2022-12-09T19:32:52.785Z,47.07
2022-12-09T19:35:28.546Z,45.70
2022-12-09T19:38:01.561Z,47.33
2022-12-09T19:40:39.752Z,47.93
2022-12-09T19:43:18.867Z,45.80
2022-12-09T19:45:48.035Z,47.87
2022-12-09T19:48:17.978Z,47.90
2022-12-09T19:50:47.072Z,46.43
2022-12-09T19:53:20.255Z,49.33
2022-12-09T19:55:49.244Z,45.73
2022-12-09T19:58:23.071Z,52.00
2022-12-09T20:00:54.743Z,51.07
2022-12-09T20:03:24.761Z,49.07
2022-12-09T20:05:55.752Z,50.67
2022-12-09T20:08:25.330Z,50.43
2022-12-09T20:10:54.583Z,51.50
2022-12-09T20:13:28.612Z,51.13
2022-12-09T20:16:05.301Z,49.67
2022-12-09T20:18:47.931Z,50.43
2022-12-09T20:21:25.375Z,51.17
2022-12-09T20:23:59.707Z,50.67
2022-12-09T20:26:37.377Z,51.57
2022-12-09T20:29:12.936Z,50.17
2022-12-09T20:31:45.386Z,50.73
2022-12-09T20:34:15.912Z,51.80
2022-12-09T20:36:45.858Z,53.77
2022-12-09T20:39:18.805Z,54.50
2022-12-09T20:41:58.871Z,54.73
2022-12-09T20:44:27.644Z,53.10
2022-12-09T20:46:59.514Z,51.47
2022-12-09T20:49:29.263Z,50.50
2022-12-09T20:52:00.697Z,47.83
2022-12-09T20:54:29.485Z,51.53
2022-12-09T20:56:58.485Z,51.07
2022-12-09T20:59:29.946Z,49.70
2022-12-09T21:02:02.179Z,47.70
2022-12-09T21:04:34.330Z,51.23
2022-12-09T21:07:13.143Z,47.08
2022-12-09T21:09:41.820Z,50.50
2022-12-09T21:12:10.890Z,50.77
2022-12-09T21:14:39.932Z,47.90
2022-12-09T21:17:10.437Z,51.33
2022-12-09T21:19:39.273Z,52.80
2022-12-09T21:22:08.185Z,49.30
2022-12-09T21:24:37.493Z,49.53
2022-12-09T21:27:06.511Z,49.57
2022-12-09T21:29:37.320Z,49.77
2022-12-09T21:32:06.182Z,51.63
2022-12-09T21:34:40.312Z,51.50
2022-12-09T21:39:40.112Z,44.10
2022-12-09T21:42:09.082Z,48.33
2022-12-09T21:44:42.666Z,50.03
2022-12-09T21:47:12.257Z,52.37
2022-12-09T21:49:41.026Z,53.57
2022-12-09T21:52:10.446Z,53.20
2022-12-09T21:54:40.298Z,60.00
2022-12-09T21:57:09.163Z,52.17
2022-12-09T21:59:38.064Z,45.90
2022-12-09T22:02:07.873Z,50.93
2022-12-09T22:04:38.299Z,56.60
2022-12-09T22:07:07.069Z,52.87
2022-12-09T22:09:39.683Z,54.87
2022-12-09T22:12:09.442Z,53.20
2022-12-09T22:14:40.965Z,53.87
2022-12-09T22:17:09.658Z,52.67
2022-12-09T22:19:41.487Z,52.57
2022-12-09T22:22:12.933Z,53.20
2022-12-09T22:24:41.988Z,55.57
2022-12-09T22:27:13.714Z,52.17
2022-12-09T22:29:54.046Z,51.03
2022-12-09T22:32:23.740Z,54.60
2022-12-09T22:34:54.991Z,55.63
2022-12-09T22:37:43.902Z,54.67
2022-12-09T22:40:14.502Z,56.87
2022-12-09T22:42:43.439Z,54.10
2022-12-09T22:45:12.487Z,54.03
2022-12-09T22:47:43.503Z,57.17
2022-12-09T22:50:13.354Z,51.60
2022-12-09T22:52:42.208Z,53.97
2022-12-09T22:55:11.004Z,58.43
2022-12-09T22:57:39.921Z,56.70
2022-12-09T23:00:11.292Z,55.70
2022-12-09T23:02:40.983Z,53.57
2022-12-09T23:05:13.012Z,53.87
2022-12-09T23:07:42.043Z,53.97
2022-12-09T23:10:11.195Z,56.67
2022-12-09T23:12:40.058Z,55.50
2022-12-09T23:15:09.983Z,52.37
2022-12-09T23:17:42.499Z,54.00
2022-12-09T23:20:12.458Z,53.50
2022-12-09T23:22:44.296Z,53.83
2022-12-09T23:25:13.155Z,52.27
2022-12-09T23:27:42.207Z,55.87
2022-12-09T23:30:13.910Z,52.57
2022-12-09T23:32:43.095Z,53.83
2022-12-09T23:35:15.172Z,53.53
2022-12-09T23:37:44.088Z,52.90
2022-12-09T23:40:15.407Z,52.57
2022-12-09T23:42:44.252Z,53.60
2022-12-09T23:45:13.133Z,52.50
2022-12-09T23:47:41.956Z,53.50
2022-12-09T23:50:11.182Z,56.27
2022-12-09T23:52:40.140Z,50.90
2022-12-09T23:55:10.294Z,52.87
2022-12-09T23:57:39.079Z,51.60
